Huntington, Utah
Current Conditions -  °F | °C
As of 6:53 AM on Thursday 23 Oct 2014 (Local Time) from KPUC Reporting Station
Clear Clear  
Wind Chill: 36°   Ceiling: Unl
Heat Index: 41°   Visibility: 10mi
Dew Point: 29°   Wind: 8mph
Humidity: 62%   Direction: 20°NNE
Pressure: 30.23"   Gusts: NA
Location:  39.33°N, 110.96°W
Report Text: KPUC 231253Z AUTO 02007KT 10SM CLR 05/M02 A3023 RMK AO2 SLP218 T00501017 TSNO
Loading
Personal Weather Stations






























Interactive Weather Map
Tropical Storm Tracking
New forecast layout! Learn more

10-Day Weather Forecast

Advertisements
Track Severe Weather on mobile